Donaueschingen Villingen, Germany

11:43 PM CET on February 27, 2015 (GMT +0100)
EDTD General MET-Station | Change Station
CLOSE
Current Station
Personal Weather Station
Location: Donaueschingen, BADEN-WüRTTEMBERG
Elevation: 2228 ft
Nearby Weather Stations

Elev 2228 ft 47.98 °N, 8.52 °E | Updated 13 seconds ago

Light Rain
Light Rain
34.0 °F
Feels Like 34 °F
N
0.0
Wind Variable Wind from WNW
Gusts 0.0 mph

Today
High -- | Low -- °F
--% Chance of Precip.
Yesterday
High -- | Low -- °F
Precip. -- in
7:11 AM 6:06 PM
Waxing Gibbous, 72% visible
Pressure 30.15 in
Visibility 6.2 miles
Clouds Few 600 ft
Scattered Clouds 1300 ft
Mostly Cloudy 4000 ft
Windchill 34 °F
Dew Point 29 °F
Humidity 83%
Rainfall 0.18 in
Snow Depth Not available.
UV 0.0 out of 12
Pollen Not available.
Air Quality Not available.
Flu Activity Not available.
METAR LSZH 272220Z VRB04KT 9999 -RA FEW006 SCT013 BKN040 02/01 Q1021 TEMPO BKN012

More Conditions Fewer Conditions

Pressure 30.15 in
Visibility 6.2 miles
Clouds Few 600 ft
Scattered Clouds 1300 ft
Mostly Cloudy 4000 ft
Windchill 34 °F
Dew Point 29 °F
Humidity 83%
Rainfall 0.18 in
Snow Depth Not available.
UV 0.0 out of 12
Pollen Not available.
Air Quality Not available.
Flu Activity Not available.
METAR LSZH 272220Z VRB04KT 9999 -RA FEW006 SCT013 BKN040 02/01 Q1021 TEMPO BKN012

More Conditions Fewer Conditions

10-Day Weather Forecast

Almanac

Astronomy

Feb. 27, 2015 Rise Set
Actual Time
Civil Twilight
Nautical Twilight
Astronomical Twilight
Moon
Length of Visible Light
Length of Day
Tomorrow will be .
, % of the Moon is Illuminated

Today's Extremes

Country Highs Country Lows

Community

WunderPhotos

Upload Photos

1,800,862 photos uploaded!

WunderBlogs® & News

Nearby

Air Quality

  Air Quality AQ Index Pollutant
Not available.

Snow Depth

Station Depth Elevation

Earthquake Activity

City Distance Mag. Time & Date
Minimum magnitude displayed is 2.5.

Coastal Water Temperatures

Place Temperature

Nearby Weather Stations